Time;durP1;ratioP1;P1;durP2;ratioP2;P2;SDS_P1;SDS_P2;PMS_P1;PMS_P2;Temp;Humidity;BMP_temperature;BMP_pressure;BME280_temperature;BME280_humidity;BME280_pressure;Samples;Min_cycle;Max_cycle;Signal;HPM_P1;HPM_P2
2021/01/14 00:00:23;;;;;;;0.43;0.43;;;;;;;0.44;94.73;95062.13;5000949;28;20527;-75
2021/01/14 00:02:50;;;;;;;0.53;0.53;;;;;;;0.54;94.92;95052.56;4988015;28;20234;-75
2021/01/14 00:05:17;;;;;;;0.30;0.30;;;;;;;0.48;94.63;95063.50;4980003;28;20252;-75
2021/01/14 00:07:44;;;;;;;0.50;0.50;;;;;;;0.44;94.92;95054.34;4985516;28;20649;-75
2021/01/14 00:10:13;;;;;;;0.30;0.30;;;;;;;0.40;95.39;95046.00;4991769;28;20543;-75
2021/01/14 00:12:42;;;;;;;0.40;0.40;;;;;;;0.42;95.43;95045.88;4995069;28;20480;-75
2021/01/14 00:15:11;;;;;;;0.50;0.43;;;;;;;0.44;95.10;95056.94;4982948;28;20248;-76
2021/01/14 00:17:37;;;;;;;0.53;0.30;;;;;;;0.28;95.67;95055.72;4992062;28;20312;-75
2021/01/14 00:20:06;;;;;;;0.40;0.40;;;;;;;0.34;95.50;95089.84;4979736;28;21017;-76
2021/01/14 00:22:33;;;;;;;0.40;0.40;;;;;;;0.30;96.12;95070.31;4987431;28;20226;-75
2021/01/14 00:25:00;;;;;;;0.30;0.23;;;;;;;0.18;96.31;95075.66;5005155;28;20496;-75
2021/01/14 00:27:26;;;;;;;0.47;0.47;;;;;;;0.14;95.97;95076.84;4987007;28;20499;-75
2021/01/14 00:29:54;;;;;;;0.70;0.70;;;;;;;0.17;96.21;95079.19;4998725;28;20492;-75
2021/01/14 00:32:21;;;;;;;0.30;0.30;;;;;;;0.26;96.62;95070.56;4969501;28;20483;-75
2021/01/14 00:34:49;;;;;;;0.67;0.40;;;;;;;0.26;96.47;95074.94;4989424;28;20939;-74
2021/01/14 00:40:01;;;;;;;0.80;0.70;;;;;;;0.44;95.79;95062.13;5002278;28;20999;-75
2021/01/14 00:42:32;;;;;;;0.53;0.30;;;;;;;0.37;95.27;95061.88;4992546;28;20476;-75
2021/01/14 00:45:00;;;;;;;0.30;0.30;;;;;;;0.36;95.52;95069.75;4981937;28;20694;-75
2021/01/14 00:47:27;;;;;;;0.40;0.40;;;;;;;0.35;96.15;95070.72;4990002;28;20475;-75
2021/01/14 00:49:54;;;;;;;0.20;0.20;;;;;;;0.40;95.73;95063.38;5001610;28;20248;-75
2021/01/14 00:52:21;;;;;;;0.20;0.20;;;;;;;0.48;96.09;95069.50;5000268;28;21063;-75
2021/01/14 00:54:48;;;;;;;0.40;0.40;;;;;;;0.54;95.70;95084.53;4982516;28;20519;-75
2021/01/14 00:57:15;;;;;;;0.30;0.20;;;;;;;0.50;96.00;95090.13;4987141;28;20491;-75
2021/01/14 00:59:42;;;;;;;1.03;1.03;;;;;;;0.55;95.13;95081.00;4983654;28;20240;-75
2021/01/14 01:02:13;;;;;;;0.37;0.37;;;;;;;0.36;95.03;95056.78;4990922;28;20237;-75
2021/01/14 01:04:40;;;;;;;0.37;0.30;;;;;;;0.41;95.20;95070.19;4996798;28;21062;-75
2021/01/14 01:07:07;;;;;;;0.20;0.20;;;;;;;0.42;95.28;95057.06;5007865;28;20654;-75
2021/01/14 01:09:34;;;;;;;0.40;0.40;;;;;;;0.39;95.74;95093.69;4990828;28;20652;-75
2021/01/14 01:12:01;;;;;;;0.87;0.60;;;;;;;0.33;95.77;95088.22;4971518;28;20226;-75
2021/01/14 01:14:28;;;;;;;0.30;0.30;;;;;;;0.32;95.25;95086.56;4995385;28;20239;-75
2021/01/14 01:16:54;;;;;;;0.47;0.47;;;;;;;0.32;96.03;95083.97;4984170;28;21051;-75
2021/01/14 01:19:22;;;;;;;0.60;0.60;;;;;;;0.39;95.99;95074.69;5000396;28;20301;-75
2021/01/14 01:21:49;;;;;;;1.13;0.50;;;;;;;0.40;95.71;95103.13;5005482;28;21035;-75
2021/01/14 01:24:16;;;;;;;0.70;0.70;;;;;;;0.38;94.84;95099.03;4997507;28;20266;-76
2021/01/14 01:26:43;;;;;;;0.70;0.70;;;;;;;0.36;95.38;95096.53;5004496;28;21054;-75
2021/01/14 01:29:10;;;;;;;0.50;0.50;;;;;;;0.38;95.25;95099.84;4978693;28;20483;-75
2021/01/14 01:31:39;;;;;;;1.23;1.23;;;;;;;0.34;95.57;95097.63;4990832;28;20501;-75
2021/01/14 01:34:06;;;;;;;1.07;1.07;;;;;;;0.34;95.64;95123.59;5007488;28;20552;-75
2021/01/14 01:36:34;;;;;;;0.60;0.60;;;;;;;0.34;95.37;95155.53;5000308;28;20893;-75
2021/01/14 01:39:01;;;;;;;1.97;1.10;;;;;;;0.37;95.80;95107.78;4991055;28;20558;-75
2021/01/14 01:41:27;;;;;;;1.13;0.90;;;;;;;0.41;95.20;95116.91;4999764;28;20234;-75
2021/01/14 01:43:54;;;;;;;0.73;0.73;;;;;;;0.39;95.65;95108.44;5000244;28;20538;-75
2021/01/14 01:46:26;;;;;;;0.87;0.87;;;;;;;0.37;94.63;95112.97;4986605;28;20491;-75
2021/01/14 01:48:55;;;;;;;1.80;1.13;;;;;;;0.43;94.51;95117.59;4990141;28;20241;-75
2021/01/14 01:51:23;;;;;;;0.60;0.60;;;;;;;0.38;94.96;95119.78;4986545;28;20467;-74
2021/01/14 01:53:51;;;;;;;0.90;0.90;;;;;;;0.28;94.73;95110.22;4998085;28;21062;-75
2021/01/14 01:56:18;;;;;;;1.20;1.10;;;;;;;0.28;94.83;95136.16;5007583;28;20767;-75
2021/01/14 01:58:46;;;;;;;0.77;0.77;;;;;;;0.26;94.20;95137.22;5006657;28;21208;-75
2021/01/14 02:01:13;;;;;;;0.50;0.50;;;;;;;0.17;93.89;95151.81;5005241;28;20465;-75
2021/01/14 02:03:40;;;;;;;0.40;0.40;;;;;;;0.15;93.81;95140.75;4987871;28;20991;-75
2021/01/14 02:06:10;;;;;;;3.10;1.07;;;;;;;0.32;93.31;95136.69;4985629;28;20303;-75
2021/01/14 02:08:46;;;;;;;0.50;0.50;;;;;;;0.37;91.62;95102.56;5006969;28;20982;-75
2021/01/14 02:11:19;;;;;;;0.30;0.30;;;;;;;0.16;91.63;95106.06;5000961;28;20498;-75
2021/01/14 02:14:02;;;;;;;0.30;0.30;;;;;;;0.12;91.98;95122.06;4997235;28;20531;-75
2021/01/14 02:16:30;;;;;;;0.33;0.30;;;;;;;0.20;92.14;95122.22;4988316;28;20475;-75
2021/01/14 02:18:58;;;;;;;0.50;0.30;;;;;;;0.10;91.76;95116.19;4981035;28;20479;-75
2021/01/14 02:21:26;;;;;;;0.53;0.30;;;;;;;-0.04;92.10;95104.41;4977269;28;20506;-75
2021/01/14 02:24:03;;;;;;;0.20;0.20;;;;;;;-0.04;93.01;95122.56;4997729;28;20942;-75
2021/01/14 02:26:32;;;;;;;1.80;0.97;;;;;;;-0.15;93.12;95128.66;4991122;28;20522;-75
2021/01/14 02:29:00;;;;;;;0.60;0.60;;;;;;;-0.17;93.10;95127.16;5005589;28;20571;-75
2021/01/14 02:31:27;;;;;;;0.83;0.83;;;;;;;-0.14;93.48;95139.88;4986112;28;20519;-75
2021/01/14 02:33:56;;;;;;;0.60;0.60;;;;;;;-0.20;93.75;95135.19;4989188;28;20996;-75
2021/01/14 02:36:24;;;;;;;0.50;0.40;;;;;;;-0.13;94.07;95151.88;4988028;28;20481;-75
2021/01/14 02:38:52;;;;;;;0.80;0.80;;;;;;;-0.10;93.94;95156.78;5000078;28;20484;-75
2021/01/14 02:41:18;;;;;;;0.40;0.30;;;;;;;-0.05;93.84;95115.72;5005093;28;20464;-75
2021/01/14 02:43:47;;;;;;;1.07;0.73;;;;;;;-0.15;93.79;95120.06;5004206;28;20515;-75
2021/01/14 02:46:15;;;;;;;0.60;0.60;;;;;;;-0.07;93.60;95135.81;4999613;28;20468;-75
2021/01/14 02:48:57;;;;;;;0.40;0.40;;;;;;;-0.08;94.00;95139.34;4997228;28;21226;-75
2021/01/14 02:51:31;;;;;;;0.90;0.50;;;;;;;-0.08;93.67;95154.91;4984640;28;20841;-75
2021/01/14 02:54:00;;;;;;;1.07;0.50;;;;;;;-0.11;94.08;95171.53;4991056;28;20490;-75
2021/01/14 02:56:27;;;;;;;0.67;0.67;;;;;;;-0.04;93.38;95182.22;5005873;28;20924;-75
2021/01/14 02:58:56;;;;;;;0.50;0.50;;;;;;;-0.15;94.16;95164.97;4978922;28;20559;-75
2021/01/14 03:01:23;;;;;;;1.47;1.37;;;;;;;-0.08;94.53;95160.09;5001740;28;20467;-74
2021/01/14 03:03:50;;;;;;;0.67;0.67;;;;;;;-0.08;94.27;95176.47;4988035;28;20717;-75
2021/01/14 03:06:17;;;;;;;3.40;1.00;;;;;;;-0.02;94.36;95190.66;4982761;28;20464;-75
2021/01/14 03:08:44;;;;;;;1.00;1.00;;;;;;;-0.04;94.48;95182.22;4984264;28;20825;-75
2021/01/14 03:11:11;;;;;;;1.73;1.63;;;;;;;-0.09;94.73;95193.00;4994279;28;20472;-75
2021/01/14 03:13:38;;;;;;;0.90;0.90;;;;;;;-0.10;94.75;95185.31;4970249;28;20827;-75
2021/01/14 03:16:08;;;;;;;1.03;1.03;;;;;;;-0.07;93.79;95191.09;5001907;28;20966;-75
2021/01/14 03:18:34;;;;;;;0.97;0.97;;;;;;;-0.03;94.18;95202.00;4978771;28;20456;-74
2021/01/14 03:21:01;;;;;;;1.47;0.90;;;;;;;-0.06;93.78;95189.31;4989159;28;20475;-74
2021/01/14 03:23:30;;;;;;;1.33;1.13;;;;;;;-0.11;94.85;95187.09;5001191;28;20471;-75
2021/01/14 03:25:56;;;;;;;1.13;1.13;;;;;;;0.02;93.80;95205.03;4999249;28;20526;-74
2021/01/14 03:28:23;;;;;;;2.37;2.17;;;;;;;-0.11;93.97;95187.09;4996072;28;20985;-74
2021/01/14 03:30:53;;;;;;;1.67;1.57;;;;;;;0.05;93.60;95181.41;4985917;28;20978;-74
2021/01/14 03:33:20;;;;;;;1.03;1.03;;;;;;;0.11;93.06;95191.28;4986783;28;20506;-74
2021/01/14 03:35:48;;;;;;;1.03;1.00;;;;;;;0.00;92.51;95188.78;4979533;28;20518;-74
2021/01/14 03:38:14;;;;;;;1.00;1.00;;;;;;;0.09;92.85;95182.81;4976177;28;20471;-74
2021/01/14 03:40:41;;;;;;;1.37;1.30;;;;;;;0.16;92.01;95176.13;4987152;28;20484;-74
2021/01/14 03:43:08;;;;;;;1.10;1.00;;;;;;;0.10;92.65;95179.28;4998836;28;20538;-74
2021/01/14 03:45:36;;;;;;;1.03;0.90;;;;;;;0.10;92.67;95184.47;5003239;28;20485;-74
2021/01/14 03:48:04;;;;;;;1.10;1.10;;;;;;;0.05;92.83;95186.63;4986758;28;20793;-74
2021/01/14 03:50:31;;;;;;;1.20;1.10;;;;;;;0.14;92.16;95178.03;4994019;28;20245;-75
2021/01/14 03:52:58;;;;;;;0.87;0.80;;;;;;;0.07;91.96;95178.69;4981558;28;20475;-75
2021/01/14 03:55:27;;;;;;;0.83;0.83;;;;;;;0.09;92.28;95184.56;4990703;28;20284;-74
2021/01/14 03:57:53;;;;;;;2.17;2.07;;;;;;;0.04;92.34;95194.53;4995655;28;20477;-74
2021/01/14 04:00:21;;;;;;;1.07;0.97;;;;;;;-0.02;92.84;95201.06;5003264;28;20880;-74
2021/01/14 04:02:47;;;;;;;1.63;1.53;;;;;;;-0.03;92.63;95202.00;4984323;28;21035;-75
2021/01/14 04:05:14;;;;;;;1.00;1.00;;;;;;;-0.06;92.68;95202.28;4989522;28;20483;-74
2021/01/14 04:07:43;;;;;;;1.50;1.40;;;;;;;0.04;93.08;95200.53;5002121;28;20311;-74
2021/01/14 04:10:10;;;;;;;0.97;0.97;;;;;;;0.05;92.26;95204.78;4996245;28;20518;-74
2021/01/14 04:12:37;;;;;;;1.03;0.90;;;;;;;-0.13;93.38;95211.53;4981490;28;20460;-74
2021/01/14 04:15:05;;;;;;;1.87;0.97;;;;;;;-0.08;93.67;95211.97;4982775;28;20501;-74
2021/01/14 04:17:32;;;;;;;1.10;0.90;;;;;;;-0.20;94.05;95207.78;4987264;28;20527;-75
2021/01/14 04:19:59;;;;;;;1.07;1.07;;;;;;;-0.21;94.16;95212.16;4981399;28;20476;-74
2021/01/14 04:22:26;;;;;;;1.00;1.00;;;;;;;-0.34;94.92;95217.56;4993579;28;20473;-74
2021/01/14 04:25:02;;;;;;;1.13;1.03;;;;;;;-0.37;95.59;95222.97;4989817;28;20988;-74
2021/01/14 04:27:29;;;;;;;1.90;1.80;;;;;;;-0.34;95.95;95227.94;4987382;28;20471;-75
2021/01/14 04:29:56;;;;;;;1.63;1.53;;;;;;;-0.33;95.88;95223.56;4985366;28;20507;-74
2021/01/14 04:32:23;;;;;;;2.10;1.33;;;;;;;-0.29;95.85;95219.75;5001454;28;20464;-75
2021/01/14 04:34:50;;;;;;;1.27;1.10;;;;;;;-0.28;95.48;95216.22;4997062;28;20480;-74
2021/01/14 04:37:17;;;;;;;1.40;1.40;;;;;;;-0.24;95.55;95227.97;5004452;28;20562;-74
2021/01/14 04:39:43;;;;;;;1.80;1.33;;;;;;;-0.24;95.53;95216.78;4979563;28;21060;-74
2021/01/14 04:42:13;;;;;;;3.07;1.43;;;;;;;-0.37;95.02;95235.94;4998705;28;20892;-75
2021/01/14 04:44:40;;;;;;;1.40;1.30;;;;;;;-0.27;95.26;95223.06;4984286;28;20452;-74
2021/01/14 04:47:13;;;;;;;0.80;0.80;;;;;;;-0.29;94.88;95233.53;4992588;28;20467;-74
2021/01/14 04:49:40;;;;;;;0.73;0.73;;;;;;;-0.18;95.08;95231.81;4989372;28;20976;-74
2021/01/14 04:52:16;;;;;;;0.90;0.90;;;;;;;-0.32;95.43;95246.78;4989836;28;21023;-74
2021/01/14 04:54:44;;;;;;;1.17;1.17;;;;;;;-0.43;95.50;95243.44;5010077;28;20219;-74
2021/01/14 04:57:18;;;;;;;1.27;1.17;;;;;;;-0.34;95.18;95255.63;4982885;28;20465;-74
2021/01/14 04:59:51;;;;;;;1.63;1.53;;;;;;;-0.39;95.50;95248.22;4990240;28;20483;-74
2021/01/14 05:02:22;;;;;;;1.20;1.00;;;;;;;-0.31;95.11;95252.78;4975355;28;20968;-76
2021/01/14 05:04:50;;;;;;;1.37;1.30;;;;;;;-0.48;95.55;95261.13;4988837;28;20517;-76
2021/01/14 05:07:30;;;;;;;2.13;2.03;;;;;;;-0.44;95.85;95258.16;4981596;28;20903;-76
2021/01/14 05:10:02;;;;;;;1.50;1.40;;;;;;;-0.31;95.59;95243.22;4996526;28;20569;-76
2021/01/14 05:12:32;;;;;;;1.87;1.33;;;;;;;-0.39;94.79;95266.38;5002507;28;20475;-76
2021/01/14 05:14:59;;;;;;;1.57;1.53;;;;;;;-0.37;95.37;95274.84;5003020;28;20469;-76
2021/01/14 05:17:26;;;;;;;3.30;2.07;;;;;;;-0.34;95.09;95268.59;5008162;28;20872;-77
2021/01/14 05:19:54;;;;;;;2.13;1.93;;;;;;;-0.36;95.02;95260.94;4998687;28;20467;-76
2021/01/14 05:22:24;;;;;;;1.90;1.80;;;;;;;-0.40;94.90;95263.91;5008592;28;20582;-77
2021/01/14 05:25:07;;;;;;;2.43;2.33;;;;;;;-0.34;95.06;95266.00;5008424;28;20529;-74
2021/01/14 05:27:36;;;;;;;3.47;1.57;;;;;;;-0.39;95.46;95268.13;5003374;28;20873;-74
2021/01/14 05:30:05;;;;;;;3.10;1.50;;;;;;;-0.32;95.37;95264.91;5007020;28;20671;-74
2021/01/14 05:32:33;;;;;;;1.57;1.47;;;;;;;-0.26;95.16;95260.19;4997292;28;20475;-74
2021/01/14 05:35:00;;;;;;;1.30;1.20;;;;;;;-0.25;95.25;95285.16;4978791;28;20500;-74
2021/01/14 05:37:27;;;;;;;0.80;0.80;;;;;;;-0.25;95.49;95279.97;5008388;28;20476;-74
2021/01/14 05:39:54;;;;;;;1.33;1.23;;;;;;;-0.37;95.03;95274.00;5007299;28;20467;-74
2021/01/14 05:42:21;;;;;;;1.07;1.07;;;;;;;-0.41;94.55;95283.00;4989355;28;20459;-74
2021/01/14 05:44:49;;;;;;;1.23;1.17;;;;;;;-0.38;94.75;95275.78;4999296;28;20468;-74
2021/01/14 05:47:20;;;;;;;2.03;1.93;;;;;;;-0.42;94.57;95282.19;4988371;28;20500;-74
2021/01/14 05:50:08;;;;;;;1.47;1.37;;;;;;;-0.38;93.98;95296.53;4997807;28;20499;-74
2021/01/14 05:52:35;;;;;;;1.47;1.37;;;;;;;-0.42;94.03;95277.00;4989437;28;20724;-74
2021/01/14 05:55:07;;;;;;;1.03;1.00;;;;;;;-0.41;93.77;95289.00;4978589;28;20564;-74
2021/01/14 05:57:35;;;;;;;1.33;1.23;;;;;;;-0.38;93.98;95283.56;4977308;28;20541;-74
2021/01/14 06:00:10;;;;;;;1.33;1.23;;;;;;;-0.48;93.85;95282.69;5005387;28;20471;-74
2021/01/14 06:02:37;;;;;;;0.90;0.90;;;;;;;-0.41;94.09;95291.59;5008428;28;20483;-74
2021/01/14 06:05:25;;;;;;;1.47;1.13;;;;;;;-0.41;93.02;95294.19;5006487;28;20557;-74
2021/01/14 06:07:52;;;;;;;1.97;1.40;;;;;;;-0.47;93.05;95293.88;5001465;28;20475;-74
2021/01/14 06:10:30;;;;;;;1.57;1.47;;;;;;;-0.43;92.26;95316.81;4999324;28;20497;-74
2021/01/14 06:12:57;;;;;;;1.80;1.70;;;;;;;-0.48;92.26;95329.31;5001717;28;20558;-74
2021/01/14 06:15:25;;;;;;;1.43;1.40;;;;;;;-0.43;92.43;95331.56;4997880;28;21005;-74
2021/01/14 06:17:54;;;;;;;2.27;2.17;;;;;;;-0.45;91.83;95330.88;5001688;28;20538;-74
2021/01/14 06:20:21;;;;;;;1.40;1.30;;;;;;;-0.52;92.16;95333.13;5004365;28;20464;-74
2021/01/14 06:22:48;;;;;;;2.43;2.00;;;;;;;-0.57;92.23;95330.06;4998420;28;20530;-74
2021/01/14 06:25:15;;;;;;;1.50;1.40;;;;;;;-0.58;92.77;95339.63;5003373;28;20903;-74
2021/01/14 06:27:54;;;;;;;4.60;1.63;;;;;;;-0.58;92.78;95333.63;4999412;28;21009;-74
2021/01/14 06:30:21;;;;;;;2.30;2.07;;;;;;;-0.50;92.62;95326.03;4965305;28;20585;-74
2021/01/14 06:33:00;;;;;;;2.43;1.73;;;;;;;-0.49;92.25;95332.03;5004460;28;20496;-73
2021/01/14 06:35:27;;;;;;;2.10;1.80;;;;;;;-0.44;91.67;95325.56;4989457;28;20558;-73
2021/01/14 06:37:55;;;;;;;2.33;2.03;;;;;;;-0.53;92.33;95325.47;4976424;28;20542;-74
2021/01/14 06:40:28;;;;;;;2.00;1.80;;;;;;;-0.51;92.04;95337.38;4982876;28;20465;-74
2021/01/14 06:42:58;;;;;;;2.13;2.03;;;;;;;-0.56;92.24;95342.09;4985611;28;20525;-68
2021/01/14 06:45:35;;;;;;;2.77;2.57;;;;;;;-0.57;92.01;95356.00;4999167;28;20825;-69
2021/01/14 06:48:07;;;;;;;2.63;2.43;;;;;;;-0.61;92.05;95360.59;5004016;28;20471;-69
2021/01/14 06:50:44;;;;;;;2.67;2.53;;;;;;;-0.54;92.37;95366.13;5004953;28;20499;-69
2021/01/14 06:53:13;;;;;;;2.43;2.33;;;;;;;-0.54;92.05;95355.75;4987675;28;20491;-69
2021/01/14 06:55:40;;;;;;;2.93;2.73;;;;;;;-0.58;92.33;95369.91;5005239;28;20483;-69
2021/01/14 06:58:09;;;;;;;3.37;2.70;;;;;;;-0.55;92.39;95385.19;5006821;28;20554;-69
2021/01/14 07:00:39;;;;;;;2.17;2.07;;;;;;;-0.52;92.32;95379.78;4985680;28;20502;-69
2021/01/14 07:03:20;;;;;;;10.23;5.53;;;;;;;-0.46;92.30;95379.25;4996929;28;20522;-69
2021/01/14 07:06:04;;;;;;;2.10;2.00;;;;;;;-0.43;92.06;95380.81;5003381;28;20484;-69
2021/01/14 07:08:32;;;;;;;2.80;2.60;;;;;;;-0.54;92.32;95381.69;4992963;28;20226;-69
2021/01/14 07:11:06;;;;;;;2.70;2.60;;;;;;;-0.49;92.23;95384.72;5004296;28;20494;-68
2021/01/14 07:13:34;;;;;;;2.33;2.07;;;;;;;-0.44;92.38;95387.75;4995901;28;20471;-69
2021/01/14 07:16:03;;;;;;;4.83;2.93;;;;;;;-0.34;91.35;95398.22;5000699;28;20485;-68
2021/01/14 07:18:32;;;;;;;3.40;2.00;;;;;;;-0.39;91.25;95411.53;4998684;28;20491;-69
2021/01/14 07:21:37;;;;;;;2.53;2.23;;;;;;;-0.43;91.55;95423.09;4987247;28;20561;-69
2021/01/14 07:24:18;;;;;;;2.73;2.53;;;;;;;-0.50;91.75;95419.34;4991561;28;20460;-69
2021/01/14 07:26:46;;;;;;;3.03;2.87;;;;;;;-0.46;91.98;95410.38;4996673;28;20966;-69
2021/01/14 07:29:15;;;;;;;3.37;3.17;;;;;;;-0.45;92.09;95419.81;5005508;28;20886;-69
2021/01/14 07:31:49;;;;;;;3.47;3.27;;;;;;;-0.53;92.07;95435.16;5004880;28;20545;-68
2021/01/14 07:34:35;;;;;;;3.63;3.33;;;;;;;-0.59;92.59;95436.44;5004865;28;20896;-69
2021/01/14 07:37:06;;;;;;;2.80;2.60;;;;;;;-0.50;92.49;95424.53;4993233;28;20683;-69
2021/01/14 07:39:51;;;;;;;2.63;2.43;;;;;;;-0.44;91.93;95434.44;4996633;28;20473;-69
2021/01/14 07:42:26;;;;;;;3.37;3.17;;;;;;;-0.30;91.51;95435.91;4988011;28;20465;-69
2021/01/14 07:44:54;;;;;;;3.23;3.03;;;;;;;-0.39;91.84;95432.28;4981359;28;20581;-69
2021/01/14 07:47:27;;;;;;;3.77;3.43;;;;;;;-0.39;91.46;95436.63;4999476;28;20561;-69
2021/01/14 07:49:54;;;;;;;2.77;2.60;;;;;;;-0.46;91.68;95436.28;5004264;28;20286;-69
2021/01/14 07:52:33;;;;;;;4.53;4.20;;;;;;;-0.39;91.72;95441.81;4988438;28;20500;-69
2021/01/14 07:55:02;;;;;;;3.83;3.17;;;;;;;-0.28;90.88;95450.38;4988042;28;21058;-69
2021/01/14 07:57:30;;;;;;;4.70;4.27;;;;;;;-0.41;90.59;95460.09;5006396;28;20476;-69
2021/01/14 07:59:58;;;;;;;3.67;3.47;;;;;;;-0.30;91.01;95465.25;4988815;28;20461;-69
2021/01/14 08:02:25;;;;;;;3.30;3.00;;;;;;;-0.38;90.70;95470.22;4988268;28;20468;-69
2021/01/14 08:04:53;;;;;;;4.93;4.53;;;;;;;-0.41;90.35;95464.44;5004699;28;20499;-68
2021/01/14 08:07:23;;;;;;;3.73;3.43;;;;;;;-0.30;90.54;95469.59;5005207;28;20542;-69
2021/01/14 08:09:51;;;;;;;3.87;3.40;;;;;;;-0.26;90.04;95465.00;5003741;28;20469;-69
2021/01/14 08:12:20;;;;;;;2.83;2.63;;;;;;;-0.41;89.91;95480.81;4995338;28;20470;-69
2021/01/14 08:14:48;;;;;;;2.47;2.27;;;;;;;-0.37;90.03;95487.41;5003599;28;21263;-68
2021/01/14 08:17:26;;;;;;;2.77;2.50;;;;;;;-0.38;89.46;95485.75;4986188;28;20509;-69
2021/01/14 08:19:54;;;;;;;4.97;2.90;;;;;;;-0.45;88.98;95495.00;5002412;28;20473;-68
2021/01/14 08:22:23;;;;;;;6.17;3.53;;;;;;;-0.53;90.06;95502.53;4992373;28;20473;-69
2021/01/14 08:24:51;;;;;;;5.37;3.13;;;;;;;-0.69;90.26;95492.53;4982058;28;20287;-69
2021/01/14 08:27:28;;;;;;;3.53;3.23;;;;;;;-0.57;90.12;95506.28;4988988;28;21013;-69
2021/01/14 08:30:00;;;;;;;3.43;2.77;;;;;;;-0.47;88.98;95507.22;5000465;28;20625;-69
2021/01/14 08:32:45;;;;;;;2.70;2.50;;;;;;;-0.57;88.96;95501.13;4987673;28;20550;-69
2021/01/14 08:35:29;;;;;;;4.07;3.67;;;;;;;-0.62;88.68;95505.84;4986654;28;20997;-68
2021/01/14 08:37:58;;;;;;;3.50;3.07;;;;;;;-0.63;88.88;95501.63;5004881;28;20479;-69
2021/01/14 08:40:27;;;;;;;4.47;2.60;;;;;;;-0.53;88.74;95501.72;5003581;28;20553;-68
2021/01/14 08:43:06;;;;;;;4.83;3.73;;;;;;;-0.58;88.68;95504.66;4993598;28;20472;-69
2021/01/14 08:45:35;;;;;;;2.97;2.77;;;;;;;-0.44;88.03;95517.38;4984033;28;20479;-69
2021/01/14 08:48:08;;;;;;;5.83;2.83;;;;;;;-0.62;87.96;95524.00;4997487;28;20517;-69
2021/01/14 08:50:37;;;;;;;2.57;2.37;;;;;;;-0.40;87.51;95534.31;5003583;28;20479;-69
2021/01/14 08:53:05;;;;;;;3.50;2.43;;;;;;;-0.54;87.20;95526.81;5005253;28;20494;-69
2021/01/14 08:55:33;;;;;;;2.83;2.20;;;;;;;-0.48;87.33;95530.69;5004645;28;20555;-69
2021/01/14 08:58:03;;;;;;;3.47;2.43;;;;;;;-0.51;86.72;95521.38;5003039;28;20475;-68
2021/01/14 09:00:31;;;;;;;3.40;2.97;;;;;;;-0.41;86.73;95527.50;4995649;28;20902;-69
2021/01/14 09:02:59;;;;;;;2.57;2.20;;;;;;;-0.44;86.74;95522.56;4999195;28;20472;-69
2021/01/14 09:05:27;;;;;;;2.53;2.43;;;;;;;-0.53;86.46;95528.47;5003333;28;20484;-69
2021/01/14 09:08:12;;;;;;;3.27;3.07;;;;;;;-0.46;86.74;95539.97;5004787;28;20490;-68
2021/01/14 09:10:46;;;;;;;2.67;2.47;;;;;;;-0.54;86.94;95536.34;4996515;28;20989;-69
2021/01/14 09:13:14;;;;;;;5.03;3.40;;;;;;;-0.46;85.66;95544.34;4996491;28;20884;-69
2021/01/14 09:15:41;;;;;;;2.87;2.67;;;;;;;-0.48;86.00;95539.28;4996977;28;20474;-70
2021/01/14 09:18:09;;;;;;;4.53;1.97;;;;;;;-0.47;85.75;95538.31;4994355;28;20263;-69
2021/01/14 09:20:36;;;;;;;2.10;1.87;;;;;;;-0.46;85.40;95552.94;5003280;28;20469;-69
2021/01/14 09:23:20;;;;;;;2.37;2.17;;;;;;;-0.45;84.66;95559.78;5005146;28;20487;-69
2021/01/14 09:25:53;;;;;;;1.43;1.17;;;;;;;-0.25;83.94;95558.22;5004805;28;20454;-69
2021/01/14 09:28:22;;;;;;;3.27;2.27;;;;;;;-0.35;83.12;95565.09;5007482;28;20248;-69
2021/01/14 09:30:54;;;;;;;2.00;1.90;;;;;;;-0.25;83.00;95570.38;5001200;28;20633;-69
2021/01/14 09:33:22;;;;;;;1.57;1.47;;;;;;;-0.18;82.15;95569.78;4981772;28;20833;-69
2021/01/14 09:36:04;;;;;;;2.00;1.90;;;;;;;-0.17;81.96;95576.59;5002398;28;20463;-69
2021/01/14 09:38:40;;;;;;;1.97;1.87;;;;;;;-0.16;81.16;95572.25;5007435;28;20657;-69
2021/01/14 09:41:10;;;;;;;1.87;1.30;;;;;;;-0.19;81.47;95580.25;5004519;28;20467;-69
2021/01/14 09:43:40;;;;;;;3.50;1.43;;;;;;;-0.16;80.56;95577.44;4999416;28;21027;-69
2021/01/14 09:46:12;;;;;;;3.40;1.67;;;;;;;-0.12;80.10;95581.41;4997386;28;20458;-68
2021/01/14 09:48:40;;;;;;;1.20;1.10;;;;;;;-0.19;80.35;95575.06;4993669;28;20468;-69
2021/01/14 09:51:12;;;;;;;1.10;1.00;;;;;;;-0.32;80.56;95581.22;5006271;28;20316;-69
2021/01/14 09:53:44;;;;;;;3.40;1.20;;;;;;;-0.26;81.12;95585.09;5007738;28;20526;-69
2021/01/14 09:56:18;;;;;;;1.40;1.23;;;;;;;-0.39;81.33;95597.34;5007714;28;20877;-70
2021/01/14 09:58:51;;;;;;;1.70;1.10;;;;;;;-0.26;80.62;95599.84;5007825;28;20470;-69
2021/01/14 10:01:21;;;;;;;1.63;1.53;;;;;;;-0.17;80.02;95599.13;4994351;28;20563;-70
2021/01/14 10:03:54;;;;;;;1.50;1.33;;;;;;;-0.18;80.29;95600.03;4998862;28;20525;-69
2021/01/14 10:06:22;;;;;;;1.57;1.37;;;;;;;-0.12;80.31;95605.59;4983347;28;20272;-69
2021/01/14 10:08:50;;;;;;;1.00;0.90;;;;;;;-0.16;79.26;95598.19;5006956;28;20218;-69
2021/01/14 10:11:20;;;;;;;2.97;1.30;;;;;;;-0.15;79.76;95602.41;4994208;28;20283;-70
2021/01/14 10:13:48;;;;;;;1.20;1.07;;;;;;;-0.04;79.57;95602.41;4985957;28;20562;-70
2021/01/14 10:16:15;;;;;;;4.27;2.07;;;;;;;-0.20;80.03;95604.53;4997588;28;20275;-69
2021/01/14 10:18:42;;;;;;;2.03;1.93;;;;;;;-0.23;80.74;95602.19;4996089;28;20228;-70
2021/01/14 10:21:09;;;;;;;0.80;0.80;;;;;;;-0.39;81.44;95603.38;4979606;28;20875;-69
2021/01/14 10:23:36;;;;;;;2.40;1.07;;;;;;;-0.32;81.16;95604.53;4970470;28;20547;-70
2021/01/14 10:26:02;;;;;;;0.70;0.70;;;;;;;-0.28;79.17;95611.13;4987996;28;20497;-69
2021/01/14 10:28:43;;;;;;;0.97;0.83;;;;;;;-0.33;79.44;95621.06;4997031;28;20521;-69
2021/01/14 10:31:09;;;;;;;0.80;0.60;;;;;;;-0.34;79.10;95616.81;5000083;28;20451;-70
2021/01/14 10:33:36;;;;;;;1.27;0.90;;;;;;;-0.39;79.26;95618.91;4995161;28;20464;-69
2021/01/14 10:36:04;;;;;;;0.60;0.60;;;;;;;-0.46;78.67;95622.09;4995903;28;20532;-69
2021/01/14 10:38:31;;;;;;;0.83;0.83;;;;;;;-0.52;79.26;95623.41;5005832;28;20499;-69
2021/01/14 10:40:58;;;;;;;2.83;0.50;;;;;;;-0.60;79.55;95620.56;5004383;28;20491;-69
2021/01/14 10:43:34;;;;;;;0.80;0.80;;;;;;;-0.51;78.60;95617.28;4977587;28;20467;-69
2021/01/14 10:46:03;;;;;;;1.03;0.30;;;;;;;-0.54;78.28;95612.34;4996135;28;20469;-69
2021/01/14 10:48:36;;;;;;;0.40;0.40;;;;;;;-0.82;79.70;95610.16;4989181;28;25696;-70
2021/01/14 10:51:03;;;;;;;1.67;0.80;;;;;;;-0.79;79.55;95609.97;5005438;28;20474;-69
2021/01/14 10:53:31;;;;;;;1.20;1.07;;;;;;;-0.77;80.23;95618.44;4989076;28;20486;-69
2021/01/14 10:56:04;;;;;;;1.30;1.10;;;;;;;-0.76;80.78;95614.91;5006690;28;20471;-69
2021/01/14 10:58:36;;;;;;;1.47;1.00;;;;;;;-0.80;80.99;95616.09;5004362;28;20900;-69
2021/01/14 11:01:14;;;;;;;1.10;1.10;;;;;;;-0.93;80.77;95619.56;4976973;28;20843;-69
2021/01/14 11:03:42;;;;;;;1.00;0.70;;;;;;;-0.80;80.35;95635.03;4998781;28;20622;-69
2021/01/14 11:06:10;;;;;;;0.33;0.30;;;;;;;-0.87;79.73;95624.31;5005214;28;20519;-69
2021/01/14 11:08:42;;;;;;;0.50;0.50;;;;;;;-0.95;80.83;95626.63;5006915;28;20971;-69
2021/01/14 11:11:11;;;;;;;0.60;0.40;;;;;;;-0.99;81.47;95622.63;4994119;28;20511;-69
2021/01/14 11:13:40;;;;;;;0.53;0.50;;;;;;;-0.97;81.18;95627.69;4998108;28;20496;-69
2021/01/14 11:16:09;;;;;;;0.60;0.57;;;;;;;-0.97;81.20;95618.16;5004785;28;20468;-69
2021/01/14 11:18:37;;;;;;;0.57;0.57;;;;;;;-1.00;81.50;95618.41;4997270;28;20533;-69
2021/01/14 11:21:05;;;;;;;0.50;0.43;;;;;;;-1.07;81.04;95622.38;5003775;28;20598;-69
2021/01/14 11:23:32;;;;;;;0.67;0.43;;;;;;;-1.05;80.96;95641.22;4997768;28;20490;-69
2021/01/14 11:26:02;;;;;;;0.93;0.40;;;;;;;-1.19;81.59;95642.25;4988553;28;20574;-69
2021/01/14 11:28:29;;;;;;;0.40;0.33;;;;;;;-1.09;82.42;95644.97;5004902;28;20484;-69
2021/01/14 11:30:58;;;;;;;0.33;0.27;;;;;;;-1.23;82.82;95637.38;5005654;28;20467;-69
2021/01/14 11:33:27;;;;;;;0.50;0.50;;;;;;;-1.27;82.27;95641.16;4989264;28;20475;-69
2021/01/14 11:35:54;;;;;;;0.80;0.63;;;;;;;-1.23;82.34;95658.09;4981296;28;20746;-69
2021/01/14 11:38:20;;;;;;;0.60;0.60;;;;;;;-1.20;82.17;95650.09;4988334;28;20463;-69
2021/01/14 11:40:47;;;;;;;0.57;0.50;;;;;;;-1.24;82.67;95653.88;4985464;28;20495;-69
2021/01/14 11:43:14;;;;;;;1.40;1.03;;;;;;;-1.17;82.55;95650.72;4986422;28;20633;-69
2021/01/14 11:45:41;;;;;;;0.40;0.40;;;;;;;-1.22;82.64;95650.22;5005419;28;20475;-69
2021/01/14 11:48:10;;;;;;;0.30;0.30;;;;;;;-1.31;83.12;95648.31;5005903;28;20471;-69
2021/01/14 11:50:37;;;;;;;0.77;0.77;;;;;;;-1.37;83.25;95638.41;4984438;28;20485;-69